createdAt,value
2018-09-10T00:02:11.404Z,2.98
2018-09-10T00:04:39.850Z,2.85
2018-09-10T00:07:08.382Z,2.62
2018-09-10T00:09:36.763Z,2.77
2018-09-10T00:12:05.375Z,2.65
2018-09-10T00:14:33.812Z,2.50
2018-09-10T00:17:02.231Z,3.10
2018-09-10T00:19:30.640Z,2.83
2018-09-10T00:21:59.087Z,2.87
2018-09-10T00:24:27.491Z,3.55
2018-09-10T00:26:55.906Z,2.58
2018-09-10T00:29:24.410Z,2.50
2018-09-10T00:31:52.856Z,2.60
2018-09-10T00:34:21.424Z,2.67
2018-09-10T00:36:49.884Z,2.72
2018-09-10T00:39:18.285Z,2.42
2018-09-10T00:41:46.719Z,2.52
2018-09-10T00:44:15.129Z,2.77
2018-09-10T00:46:43.576Z,3.17
2018-09-10T00:49:11.974Z,2.65
2018-09-10T00:51:40.416Z,2.95
2018-09-10T00:54:08.820Z,3.05
2018-09-10T00:56:37.265Z,3.00
2018-09-10T00:59:05.678Z,2.75
2018-09-10T01:01:34.130Z,3.20
2018-09-10T01:04:02.569Z,2.62
2018-09-10T01:06:31.035Z,2.90
2018-09-10T01:08:59.437Z,3.45
2018-09-10T01:11:27.884Z,2.80
2018-09-10T01:13:56.333Z,3.17
2018-09-10T01:16:24.739Z,3.30
2018-09-10T01:18:53.193Z,3.12
2018-09-10T01:21:21.612Z,3.02
2018-09-10T01:23:50.061Z,3.10
2018-09-10T01:26:18.462Z,3.15
2018-09-10T01:28:46.869Z,2.98
2018-09-10T01:31:15.329Z,3.15
2018-09-10T01:33:49.047Z,2.72
2018-09-10T01:36:17.493Z,2.83
2018-09-10T01:38:45.636Z,2.70
2018-09-10T01:41:14.041Z,2.90
2018-09-10T01:43:42.477Z,2.95
2018-09-10T01:46:10.884Z,2.60
2018-09-10T01:48:39.325Z,3.20
2018-09-10T01:51:07.730Z,2.65
2018-09-10T01:53:36.172Z,2.92
2018-09-10T01:56:05.064Z,2.37
2018-09-10T01:58:33.510Z,2.80
2018-09-10T02:01:01.915Z,3.08
2018-09-10T02:03:30.169Z,2.83
2018-09-10T02:05:58.604Z,2.55
2018-09-10T02:08:26.728Z,2.67
2018-09-10T02:10:55.131Z,2.70
2018-09-10T02:13:23.584Z,2.87
2018-09-10T02:15:52.618Z,2.60
2018-09-10T02:18:22.560Z,2.52
2018-09-10T02:20:51.236Z,2.80
2018-09-10T02:23:20.026Z,2.70
2018-09-10T02:25:48.444Z,3.17
2018-09-10T02:28:16.885Z,2.58
2018-09-10T02:30:45.293Z,2.85
2018-09-10T02:33:13.733Z,2.55
2018-09-10T02:35:42.140Z,2.33
2018-09-10T02:38:10.619Z,2.72
2018-09-10T02:40:39.050Z,2.65
2018-09-10T02:43:07.509Z,2.90
2018-09-10T02:45:35.963Z,2.33
2018-09-10T02:48:04.542Z,2.50
2018-09-10T02:50:32.976Z,2.60
2018-09-10T02:53:01.408Z,2.47
2018-09-10T02:55:29.892Z,2.92
2018-09-10T02:57:58.318Z,2.30
2018-09-10T03:00:26.782Z,2.50
2018-09-10T03:02:55.541Z,2.72
2018-09-10T03:05:23.985Z,2.40
2018-09-10T03:07:52.418Z,2.30
2018-09-10T03:10:22.314Z,2.50
2018-09-10T03:12:51.562Z,3.05
2018-09-10T03:15:20.417Z,2.83
2018-09-10T03:17:48.872Z,2.90
2018-09-10T03:20:17.349Z,2.52
2018-09-10T03:22:45.761Z,2.42
2018-09-10T03:25:14.193Z,2.55
2018-09-10T03:27:42.705Z,2.90
2018-09-10T03:30:11.177Z,2.62
2018-09-10T03:32:40.033Z,2.62
2018-09-10T03:35:08.524Z,2.40
2018-09-10T03:37:37.200Z,3.02
2018-09-10T03:40:05.666Z,2.70
2018-09-10T03:42:34.106Z,2.85
2018-09-10T03:45:02.589Z,3.35
2018-09-10T03:47:31.044Z,3.00
2018-09-10T03:49:59.447Z,3.00
2018-09-10T03:52:27.889Z,3.35
2018-09-10T03:54:56.349Z,2.62
2018-09-10T03:57:24.756Z,2.62
2018-09-10T03:59:53.373Z,2.47
2018-09-10T04:02:21.854Z,2.60
2018-09-10T04:04:50.066Z,3.22
2018-09-10T04:07:18.462Z,2.67
2018-09-10T04:09:46.914Z,2.92
2018-09-10T04:12:15.322Z,3.45
2018-09-10T04:14:43.803Z,3.00
2018-09-10T04:17:12.299Z,2.90
2018-09-10T04:19:40.785Z,3.00
2018-09-10T04:22:09.290Z,3.87
2018-09-10T04:24:37.774Z,3.35
2018-09-10T04:27:06.172Z,3.50
2018-09-10T04:29:34.617Z,2.95
2018-09-10T04:32:03.022Z,3.00
2018-09-10T04:34:31.494Z,3.08
2018-09-10T04:36:59.901Z,3.65
2018-09-10T04:39:28.313Z,3.15
2018-09-10T04:41:56.845Z,2.80
2018-09-10T04:44:25.285Z,3.75
2018-09-10T04:46:53.724Z,2.70
2018-09-10T04:49:21.816Z,2.60
2018-09-10T04:51:51.005Z,2.77
2018-09-10T04:54:19.418Z,2.83
2018-09-10T04:56:47.851Z,3.22
2018-09-10T04:59:16.271Z,2.50
2018-09-10T05:01:44.701Z,2.90
2018-09-10T05:04:13.144Z,2.55
2018-09-10T05:06:41.565Z,3.00
2018-09-10T05:09:10.274Z,2.87
2018-09-10T05:11:38.752Z,2.65
2018-09-10T05:14:07.160Z,2.80
2018-09-10T05:16:35.680Z,2.52
2018-09-10T05:19:04.065Z,2.62
2018-09-10T05:21:32.498Z,2.62
2018-09-10T05:24:00.978Z,3.12
2018-09-10T05:26:29.439Z,3.17
2018-09-10T05:28:57.885Z,3.05
2018-09-10T05:31:26.334Z,3.62
2018-09-10T05:33:54.713Z,3.40
2018-09-10T05:36:23.151Z,3.25
2018-09-10T05:38:51.647Z,3.67
2018-09-10T05:41:20.097Z,3.20
2018-09-10T05:43:48.528Z,4.10
2018-09-10T05:46:16.976Z,3.87
2018-09-10T05:48:45.372Z,3.30
2018-09-10T05:51:13.837Z,3.50
2018-09-10T05:53:42.334Z,3.83
2018-09-10T05:56:10.877Z,3.10
2018-09-10T05:58:39.296Z,3.47
2018-09-10T06:01:07.756Z,3.58
2018-09-10T06:03:36.210Z,3.10
2018-09-10T06:06:04.701Z,3.27
2018-09-10T06:08:32.791Z,3.15
2018-09-10T06:11:01.252Z,3.55
2018-09-10T06:13:29.665Z,3.52
2018-09-10T06:15:58.189Z,2.55
2018-09-10T06:18:26.601Z,2.95
2018-09-10T06:20:54.758Z,3.52
2018-09-10T06:23:22.897Z,3.25
2018-09-10T06:25:51.305Z,3.15
2018-09-10T06:28:19.742Z,2.85
2018-09-10T06:30:48.165Z,3.22
2018-09-10T06:33:16.572Z,2.70
2018-09-10T06:35:44.977Z,2.40
2018-09-10T06:38:13.420Z,2.15
2018-09-10T06:40:41.857Z,2.10
2018-09-10T06:43:10.315Z,2.45
2018-09-10T06:45:38.796Z,2.12
2018-09-10T06:48:07.278Z,2.67
2018-09-10T06:50:35.682Z,2.08
2018-09-10T06:53:04.134Z,1.85
2018-09-10T06:55:32.905Z,2.02
2018-09-10T06:58:01.337Z,1.98
2018-09-10T07:00:29.801Z,1.52
2018-09-10T07:02:58.265Z,2.22
2018-09-10T07:05:26.673Z,2.00
2018-09-10T07:07:55.131Z,2.10
2018-09-10T07:10:23.591Z,2.47
2018-09-10T07:12:52.061Z,2.30
2018-09-10T07:15:20.429Z,2.55
2018-09-10T07:17:49.089Z,2.22
2018-09-10T07:20:17.476Z,2.52
2018-09-10T07:22:45.885Z,2.27
2018-09-10T07:25:14.345Z,2.40
2018-09-10T07:27:42.773Z,2.33
2018-09-10T07:30:11.169Z,1.90
2018-09-10T07:32:39.633Z,2.10
2018-09-10T07:35:07.748Z,2.30
2018-09-10T07:37:36.218Z,2.02
2018-09-10T07:40:04.742Z,1.95
2018-09-10T07:42:33.271Z,2.02
2018-09-10T07:45:01.708Z,2.45
2018-09-10T07:47:29.893Z,1.80
2018-09-10T07:49:58.322Z,2.33
2018-09-10T07:52:26.773Z,1.80
2018-09-10T07:54:55.190Z,2.05
2018-09-10T07:57:23.630Z,1.80
2018-09-10T07:59:52.077Z,2.00
2018-09-10T08:02:20.643Z,1.67
2018-09-10T08:04:49.080Z,1.67
2018-09-10T08:07:17.518Z,2.00
2018-09-10T08:09:45.977Z,2.00
2018-09-10T08:12:14.399Z,2.17
2018-09-10T08:14:42.866Z,1.90
2018-09-10T08:17:11.312Z,2.12
2018-09-10T08:19:39.764Z,2.00
2018-09-10T08:22:08.170Z,1.92
2018-09-10T08:24:36.616Z,2.10
2018-09-10T08:27:05.197Z,1.75
2018-09-10T08:29:33.655Z,2.15
2018-09-10T08:32:02.064Z,1.85
2018-09-10T08:34:30.548Z,2.10
2018-09-10T08:36:59.104Z,2.10
2018-09-10T08:39:27.299Z,1.98
2018-09-10T08:41:55.717Z,2.35
2018-09-10T08:44:24.229Z,2.27
2018-09-10T08:46:52.644Z,2.08
2018-09-10T08:49:21.094Z,2.35
2018-09-10T08:51:49.548Z,2.10
2018-09-10T08:54:18.057Z,2.60
2018-09-10T08:56:46.408Z,1.95
2018-09-10T08:59:14.880Z,2.33
2018-09-10T09:01:43.366Z,2.05
2018-09-10T09:04:11.790Z,2.05
2018-09-10T09:06:40.274Z,1.87
2018-09-10T09:09:09.508Z,2.27
2018-09-10T09:11:37.943Z,1.92
2018-09-10T09:14:06.420Z,2.20
2018-09-10T09:16:34.828Z,2.00
2018-09-10T09:19:03.289Z,2.08
2018-09-10T09:21:31.697Z,1.98
2018-09-10T09:24:00.121Z,2.10
2018-09-10T09:26:28.561Z,2.12
2018-09-10T09:28:57.009Z,2.10
2018-09-10T09:31:25.466Z,2.25
2018-09-10T09:33:53.591Z,2.08
2018-09-10T09:36:27.400Z,1.90
2018-09-10T09:39:01.141Z,1.50
2018-09-10T09:41:34.908Z,1.90
2018-09-10T09:44:08.825Z,2.50
2018-09-10T09:46:37.245Z,2.47
2018-09-10T09:49:05.758Z,2.00
2018-09-10T09:51:34.196Z,2.05
2018-09-10T09:54:02.637Z,2.20
2018-09-10T09:56:31.072Z,2.47
2018-09-10T09:58:59.696Z,2.22
2018-09-10T10:01:33.380Z,2.00
2018-09-10T10:04:22.791Z,2.00
2018-09-10T10:06:51.640Z,1.80
2018-09-10T10:09:20.053Z,2.20
2018-09-10T10:11:48.560Z,2.10
2018-09-10T10:14:16.938Z,2.00
2018-09-10T10:16:45.353Z,2.20
2018-09-10T10:19:13.802Z,1.67
2018-09-10T10:21:42.249Z,2.25
2018-09-10T10:24:10.662Z,1.92
2018-09-10T10:26:39.129Z,1.90
2018-09-10T10:29:07.538Z,1.77
2018-09-10T10:31:36.029Z,1.80
2018-09-10T10:34:04.486Z,1.80
2018-09-10T10:36:32.943Z,1.75
2018-09-10T10:39:01.652Z,1.60
2018-09-10T10:41:30.152Z,1.77
2018-09-10T10:43:58.560Z,1.70
2018-09-10T10:46:26.996Z,1.80
2018-09-10T10:48:55.421Z,1.70
2018-09-10T10:51:23.852Z,1.72
2018-09-10T10:53:52.440Z,2.15
2018-09-10T10:56:20.761Z,1.80
2018-09-10T10:58:49.392Z,1.67
2018-09-10T11:01:17.886Z,1.55
2018-09-10T11:03:46.513Z,1.80
2018-09-10T11:06:14.989Z,1.92
2018-09-10T11:08:43.401Z,1.82
2018-09-10T11:11:11.947Z,1.92
2018-09-10T11:13:40.343Z,1.90
2018-09-10T11:16:08.760Z,1.52
2018-09-10T11:18:37.187Z,1.70
2018-09-10T11:21:05.640Z,1.15
2018-09-10T11:23:34.032Z,1.70
2018-09-10T11:26:02.460Z,1.95
2018-09-10T11:28:30.580Z,1.50
2018-09-10T11:30:59.017Z,1.50
2018-09-10T11:33:27.163Z,1.60
2018-09-10T11:35:55.601Z,1.85
2018-09-10T11:38:24.193Z,1.50
2018-09-10T11:40:52.632Z,2.12
2018-09-10T11:43:21.404Z,2.00
2018-09-10T11:45:49.535Z,2.02
2018-09-10T11:48:17.942Z,1.67
2018-09-10T11:50:46.365Z,1.72
2018-09-10T11:53:14.770Z,2.00
2018-09-10T11:55:43.236Z,1.75
2018-09-10T11:58:11.669Z,1.55
2018-09-10T12:00:40.210Z,1.60
2018-09-10T12:03:08.666Z,1.52
2018-09-10T12:05:37.118Z,2.22
2018-09-10T12:08:05.596Z,1.42
2018-09-10T12:10:34.034Z,1.40
2018-09-10T12:13:02.489Z,1.80
2018-09-10T12:15:30.940Z,1.47
2018-09-10T12:17:59.373Z,1.62
2018-09-10T12:20:27.789Z,1.42
2018-09-10T12:22:56.217Z,1.85
2018-09-10T12:25:24.626Z,1.35
2018-09-10T12:27:53.077Z,2.40
2018-09-10T12:30:21.521Z,1.65
2018-09-10T12:32:49.975Z,1.30
2018-09-10T12:35:18.381Z,1.47
2018-09-10T12:37:47.069Z,1.62
2018-09-10T12:40:15.514Z,1.52
2018-09-10T12:42:44.004Z,1.85
2018-09-10T12:45:12.414Z,1.62
2018-09-10T12:47:40.860Z,1.70
2018-09-10T12:50:09.324Z,2.00
2018-09-10T12:52:37.752Z,2.47
2018-09-10T12:55:06.297Z,1.60
2018-09-10T12:57:34.744Z,1.65
2018-09-10T13:00:02.908Z,1.67
2018-09-10T13:02:31.413Z,1.42
2018-09-10T13:04:59.858Z,1.90
2018-09-10T13:07:28.329Z,2.35
2018-09-10T13:09:56.440Z,1.92
2018-09-10T13:12:24.945Z,1.80
2018-09-10T13:14:53.368Z,1.77
2018-09-10T13:17:21.827Z,1.70
2018-09-10T13:19:50.277Z,1.67
2018-09-10T13:22:18.725Z,1.75
2018-09-10T13:24:47.154Z,1.40
2018-09-10T13:27:15.592Z,1.35
2018-09-10T13:29:44.141Z,1.70
2018-09-10T13:32:12.609Z,1.62
2018-09-10T13:34:41.037Z,1.57
2018-09-10T13:37:09.485Z,1.32
2018-09-10T13:39:37.900Z,1.52
2018-09-10T13:42:06.411Z,1.47
2018-09-10T13:44:34.908Z,1.60
2018-09-10T13:47:03.082Z,1.45
2018-09-10T13:49:31.552Z,1.67
2018-09-10T13:52:00.033Z,1.50
2018-09-10T13:54:28.524Z,1.65
2018-09-10T13:56:56.970Z,1.82
2018-09-10T13:59:25.409Z,1.80
2018-09-10T14:01:53.792Z,1.60
2018-09-10T14:04:22.248Z,1.82
2018-09-10T14:06:50.383Z,1.50
2018-09-10T14:09:18.824Z,1.37
2018-09-10T14:11:47.270Z,1.92
2018-09-10T14:14:15.692Z,1.52
2018-09-10T14:16:44.149Z,1.20
2018-09-10T14:19:12.581Z,1.60
2018-09-10T14:21:40.730Z,1.80
2018-09-10T14:24:09.394Z,1.60
2018-09-10T14:26:37.886Z,1.72
2018-09-10T14:29:06.343Z,1.35
2018-09-10T14:31:34.920Z,1.22
2018-09-10T14:34:04.102Z,1.60
2018-09-10T14:36:32.513Z,1.50
2018-09-10T14:39:00.975Z,1.12
2018-09-10T14:41:29.400Z,1.30
2018-09-10T14:43:57.858Z,1.30
2018-09-10T14:46:26.265Z,1.30
2018-09-10T14:48:54.712Z,1.35
2018-09-10T14:51:23.144Z,1.02
2018-09-10T14:53:51.933Z,1.10
2018-09-10T14:56:20.351Z,0.95
2018-09-10T14:58:49.001Z,1.32
2018-09-10T15:01:17.420Z,1.20
2018-09-10T15:03:45.929Z,1.20
2018-09-10T15:06:14.336Z,1.15
2018-09-10T15:08:42.797Z,1.60
2018-09-10T15:11:11.614Z,1.12
2018-09-10T15:13:40.078Z,1.22
2018-09-10T15:16:08.510Z,1.27
2018-09-10T15:18:37.076Z,1.37
2018-09-10T15:21:05.617Z,1.00
2018-09-10T15:23:34.053Z,1.35
2018-09-10T15:26:02.532Z,1.95
2018-09-10T15:28:30.910Z,1.45
2018-09-10T15:30:59.368Z,1.15
2018-09-10T15:33:27.785Z,1.20
2018-09-10T15:35:56.240Z,1.10
2018-09-10T15:38:24.372Z,1.37
2018-09-10T15:40:52.821Z,1.02
2018-09-10T15:43:21.294Z,1.12
2018-09-10T15:45:49.429Z,1.20
2018-09-10T15:48:17.890Z,1.30
2018-09-10T15:50:46.344Z,1.10
2018-09-10T15:53:14.770Z,1.40
2018-09-10T15:55:43.230Z,1.00
2018-09-10T15:58:11.664Z,1.17
2018-09-10T16:00:40.121Z,1.20
2018-09-10T16:03:08.562Z,1.30
2018-09-10T16:05:36.729Z,1.25
2018-09-10T16:08:05.196Z,1.35
2018-09-10T16:10:33.634Z,1.07
2018-09-10T16:13:02.043Z,1.00
2018-09-10T16:15:30.474Z,1.55
2018-09-10T16:17:58.908Z,1.30
2018-09-10T16:20:27.469Z,1.22
2018-09-10T16:22:55.869Z,1.22
2018-09-10T16:25:24.336Z,1.30
2018-09-10T16:27:52.781Z,1.20
2018-09-10T16:30:21.229Z,1.32
2018-09-10T16:32:49.660Z,1.05
2018-09-10T16:35:18.149Z,1.22
2018-09-10T16:37:46.563Z,1.42
2018-09-10T16:40:15.003Z,1.40
2018-09-10T16:42:43.420Z,0.98
2018-09-10T16:45:11.909Z,1.50
2018-09-10T16:47:40.326Z,1.30
2018-09-10T16:50:08.800Z,1.47
2018-09-10T16:52:37.207Z,1.57
2018-09-10T16:55:05.422Z,1.30
2018-09-10T16:57:33.937Z,1.17
2018-09-10T17:00:02.389Z,1.80
2018-09-10T17:02:30.528Z,1.90
2018-09-10T17:04:58.972Z,1.87
2018-09-10T17:07:27.512Z,1.87
2018-09-10T17:09:56.174Z,1.42
2018-09-10T17:12:24.698Z,1.52
2018-09-10T17:14:53.245Z,1.65
2018-09-10T17:17:21.642Z,2.10
2018-09-10T17:19:49.781Z,1.95
2018-09-10T17:22:18.258Z,2.10
2018-09-10T17:24:46.692Z,2.42
2018-09-10T17:27:15.162Z,2.87
2018-09-10T17:29:43.604Z,2.75
2018-09-10T17:32:12.057Z,2.70
2018-09-10T17:34:40.444Z,2.02
2018-09-10T17:37:09.266Z,2.25
2018-09-10T17:39:37.701Z,1.95
2018-09-10T17:42:06.235Z,2.12
2018-09-10T17:44:34.676Z,1.87
2018-09-10T17:47:03.226Z,2.33
2018-09-10T17:49:31.267Z,1.80
2018-09-10T17:51:59.751Z,2.37
2018-09-10T17:54:27.905Z,1.65
2018-09-10T17:56:56.384Z,1.82
2018-09-10T17:59:24.494Z,2.00
2018-09-10T18:01:52.989Z,1.90
2018-09-10T18:04:21.433Z,1.70
2018-09-10T18:06:49.992Z,1.75
2018-09-10T18:09:18.426Z,2.15
2018-09-10T18:11:46.903Z,1.85
2018-09-10T18:14:15.394Z,1.90
2018-09-10T18:16:43.940Z,2.20
2018-09-10T18:19:12.369Z,2.20
2018-09-10T18:21:40.801Z,1.87
2018-09-10T18:24:09.208Z,1.72
2018-09-10T18:26:37.629Z,2.02
2018-09-10T18:29:06.244Z,1.87
2018-09-10T18:31:34.368Z,1.90
2018-09-10T18:34:02.845Z,1.90
2018-09-10T18:36:31.277Z,1.85
2018-09-10T18:38:59.767Z,2.00
2018-09-10T18:41:27.879Z,1.80
2018-09-10T18:43:56.345Z,2.22
2018-09-10T18:46:26.024Z,2.42
2018-09-10T18:48:54.271Z,2.02
2018-09-10T18:51:23.388Z,2.12
2018-09-10T18:53:51.570Z,1.92
2018-09-10T18:56:19.980Z,1.80
2018-09-10T18:58:48.433Z,1.57
2018-09-10T19:01:17.172Z,1.50
2018-09-10T19:03:45.424Z,1.90
2018-09-10T19:06:13.845Z,1.45
2018-09-10T19:08:42.020Z,1.77
2018-09-10T19:11:10.461Z,1.70
2018-09-10T19:13:38.596Z,1.50
2018-09-10T19:16:07.045Z,1.62
2018-09-10T19:18:39.592Z,1.67
2018-09-10T19:21:09.441Z,1.60
2018-09-10T19:23:38.713Z,1.30
2018-09-10T19:26:07.537Z,1.50
2018-09-10T19:28:36.021Z,1.55
2018-09-10T19:31:04.523Z,1.82
2018-09-10T19:33:33.227Z,1.90
2018-09-10T19:36:01.665Z,1.98
2018-09-10T19:38:30.081Z,3.47
2018-09-10T19:40:58.599Z,1.47
2018-09-10T19:43:26.711Z,2.00
2018-09-10T19:45:55.205Z,1.95
2018-09-10T19:48:23.604Z,2.50
2018-09-10T19:50:52.075Z,2.10
2018-09-10T19:53:20.516Z,2.08
2018-09-10T19:55:48.928Z,2.27
2018-09-10T19:58:17.341Z,2.37
2018-09-10T20:00:45.792Z,2.60
2018-09-10T20:03:14.256Z,2.77
2018-09-10T20:05:42.721Z,3.35
2018-09-10T20:08:11.129Z,3.42
2018-09-10T20:10:39.552Z,3.40
2018-09-10T20:13:07.688Z,3.08
2018-09-10T20:15:36.164Z,3.08
2018-09-10T20:18:04.657Z,2.60
2018-09-10T20:20:33.117Z,3.22
2018-09-10T20:23:01.517Z,2.75
2018-09-10T20:25:29.663Z,3.17
2018-09-10T20:27:58.310Z,2.15
2018-09-10T20:30:26.767Z,2.30
2018-09-10T20:32:55.229Z,2.30
2018-09-10T20:35:23.685Z,1.70
2018-09-10T20:37:52.176Z,2.37
2018-09-10T20:40:20.673Z,1.42
2018-09-10T20:42:49.083Z,1.40
2018-09-10T20:45:17.245Z,1.50
2018-09-10T20:47:45.672Z,1.25
2018-09-10T20:50:13.812Z,1.57
2018-09-10T20:52:42.238Z,1.45
2018-09-10T20:55:10.686Z,1.57
2018-09-10T20:57:39.124Z,1.40
2018-09-10T21:00:07.606Z,1.55
2018-09-10T21:02:36.017Z,1.80
2018-09-10T21:05:04.610Z,1.80
2018-09-10T21:07:33.029Z,1.40
2018-09-10T21:10:01.156Z,1.35
2018-09-10T21:12:29.609Z,1.65
2018-09-10T21:14:58.051Z,1.70
2018-09-10T21:17:26.466Z,1.52
2018-09-10T21:19:54.917Z,1.50
2018-09-10T21:22:23.029Z,1.55
2018-09-10T21:24:51.429Z,1.40
2018-09-10T21:27:19.552Z,2.62
2018-09-10T21:29:47.952Z,1.40
2018-09-10T21:32:16.410Z,1.40
2018-09-10T21:34:44.809Z,1.55
2018-09-10T21:37:13.253Z,1.62
2018-09-10T21:39:41.672Z,1.50
2018-09-10T21:42:10.182Z,1.55
2018-09-10T21:44:38.611Z,1.60
2018-09-10T21:47:07.125Z,1.75
2018-09-10T21:49:35.637Z,1.52
2018-09-10T21:52:04.094Z,1.40
2018-09-10T21:54:32.600Z,1.70
2018-09-10T21:57:01.032Z,1.62
2018-09-10T21:59:29.413Z,1.70
2018-09-10T22:01:57.893Z,1.85
2018-09-10T22:04:26.353Z,1.52
2018-09-10T22:06:54.488Z,1.70
2018-09-10T22:09:22.909Z,2.00
2018-09-10T22:11:56.632Z,1.80
2018-09-10T22:14:25.053Z,1.80
2018-09-10T22:16:53.485Z,1.47
2018-09-10T22:19:22.169Z,1.57
2018-09-10T22:21:50.647Z,1.45
2018-09-10T22:24:18.748Z,1.77
2018-09-10T22:26:47.192Z,1.70
2018-09-10T22:29:15.568Z,1.72
2018-09-10T22:31:44.012Z,1.70
2018-09-10T22:34:12.473Z,1.47
2018-09-10T22:36:41.005Z,1.72
2018-09-10T22:39:12.225Z,1.72
2018-09-10T22:41:41.020Z,1.80
2018-09-10T22:44:09.454Z,1.60
2018-09-10T22:46:37.900Z,1.75
2018-09-10T22:49:07.445Z,1.67
2018-09-10T22:51:36.144Z,1.85
2018-09-10T22:54:04.315Z,1.40
2018-09-10T22:56:32.806Z,1.60
2018-09-10T22:59:01.299Z,1.40
2018-09-10T23:01:29.720Z,1.50
2018-09-10T23:03:57.844Z,1.57
2018-09-10T23:06:26.331Z,1.65
2018-09-10T23:08:54.776Z,1.50
2018-09-10T23:11:23.211Z,1.55
2018-09-10T23:13:51.613Z,1.57
2018-09-10T23:16:20.017Z,1.32
2018-09-10T23:18:48.450Z,1.70
2018-09-10T23:21:16.848Z,1.42
2018-09-10T23:23:45.280Z,1.72
2018-09-10T23:26:13.705Z,1.52
2018-09-10T23:28:41.849Z,1.30
2018-09-10T23:31:09.960Z,1.52
2018-09-10T23:33:38.417Z,1.47
2018-09-10T23:36:06.846Z,1.15
2018-09-10T23:38:34.975Z,1.62
2018-09-10T23:41:03.093Z,1.80
2018-09-10T23:43:31.528Z,1.30
2018-09-10T23:45:59.936Z,1.40
2018-09-10T23:48:28.352Z,1.57
2018-09-10T23:50:56.936Z,1.40
2018-09-10T23:53:25.438Z,1.67
2018-09-10T23:55:54.480Z,1.80
2018-09-10T23:58:22.898Z,1.47
